createdAt,value
2019-02-14T00:01:36.275Z,6.90
2019-02-14T00:04:03.082Z,6.94
2019-02-14T00:06:30.195Z,6.80
2019-02-14T00:08:57.129Z,6.81
2019-02-14T00:11:23.721Z,6.74
2019-02-14T00:13:50.716Z,6.46
2019-02-14T00:16:17.337Z,6.39
2019-02-14T00:18:44.316Z,6.40
2019-02-14T00:21:11.240Z,6.35
2019-02-14T00:23:37.844Z,6.36
2019-02-14T00:26:04.718Z,6.52
2019-02-14T00:28:31.596Z,6.54
2019-02-14T00:30:58.400Z,6.51
2019-02-14T00:33:24.995Z,6.45
2019-02-14T00:35:51.862Z,6.43
2019-02-14T00:38:19.857Z,6.24
2019-02-14T00:40:46.449Z,6.22
2019-02-14T00:43:13.043Z,6.37
2019-02-14T00:45:39.737Z,6.45
2019-02-14T00:48:06.613Z,6.39
2019-02-14T00:50:33.310Z,6.44
2019-02-14T00:52:59.921Z,6.52
2019-02-14T00:55:26.699Z,6.43
2019-02-14T00:57:53.695Z,6.52
2019-02-14T01:00:20.417Z,6.67
2019-02-14T01:02:47.118Z,6.65
2019-02-14T01:05:13.749Z,6.53
2019-02-14T01:07:41.440Z,6.31
2019-02-14T01:10:08.174Z,6.29
2019-02-14T01:12:35.000Z,6.19
2019-02-14T01:15:01.893Z,6.07
2019-02-14T01:17:28.498Z,6.10
2019-02-14T01:19:55.225Z,6.19
2019-02-14T01:22:21.860Z,6.25
2019-02-14T01:24:48.520Z,6.37
2019-02-14T01:27:15.434Z,6.15
2019-02-14T01:29:42.454Z,6.11
2019-02-14T01:32:09.041Z,6.23
2019-02-14T01:34:36.165Z,6.24
2019-02-14T01:37:02.821Z,6.39
2019-02-14T01:39:29.683Z,6.43
2019-02-14T01:41:56.345Z,6.37
2019-02-14T01:44:22.994Z,6.55
2019-02-14T01:46:49.610Z,6.54
2019-02-14T01:49:16.315Z,6.35
2019-02-14T01:51:43.252Z,6.17
2019-02-14T01:54:09.885Z,6.24
2019-02-14T01:56:36.667Z,6.26
2019-02-14T01:59:03.586Z,6.30
2019-02-14T02:01:30.212Z,6.36
2019-02-14T02:03:56.945Z,6.28
2019-02-14T02:06:23.759Z,6.31
2019-02-14T02:08:50.471Z,6.44
2019-02-14T02:11:17.245Z,6.49
2019-02-14T02:13:43.862Z,6.53
2019-02-14T02:16:10.545Z,6.70
2019-02-14T02:18:37.452Z,6.61
2019-02-14T02:21:04.103Z,6.45
2019-02-14T02:23:30.925Z,6.39
2019-02-14T02:25:57.868Z,6.61
2019-02-14T02:28:24.521Z,6.63
2019-02-14T02:30:51.144Z,6.58
2019-02-14T02:33:18.143Z,6.47
2019-02-14T02:35:44.755Z,6.48
2019-02-14T02:38:11.535Z,6.51
2019-02-14T02:40:38.437Z,6.50
2019-02-14T02:43:05.043Z,6.62
2019-02-14T02:45:32.139Z,6.71
2019-02-14T02:47:58.996Z,6.71
2019-02-14T02:50:26.116Z,6.79
2019-02-14T02:52:53.304Z,6.84
2019-02-14T02:55:20.169Z,6.96
2019-02-14T02:57:46.895Z,6.97
2019-02-14T03:00:15.329Z,6.86
2019-02-14T03:02:42.018Z,6.60
2019-02-14T03:05:08.921Z,6.60
2019-02-14T03:07:35.978Z,6.35
2019-02-14T03:10:02.658Z,6.28
2019-02-14T03:12:29.452Z,6.27
2019-02-14T03:14:56.342Z,6.46
2019-02-14T03:17:23.740Z,6.50
2019-02-14T03:19:50.655Z,6.49
2019-02-14T03:22:17.302Z,6.65
2019-02-14T03:24:45.744Z,6.85
2019-02-14T03:27:12.442Z,6.85
2019-02-14T03:29:39.430Z,6.77
2019-02-14T03:32:06.341Z,6.96
2019-02-14T03:34:33.111Z,7.14
2019-02-14T03:37:01.236Z,7.20
2019-02-14T03:39:27.940Z,7.32
2019-02-14T03:41:54.565Z,7.20
2019-02-14T03:44:21.876Z,7.17
2019-02-14T03:46:48.860Z,7.18
2019-02-14T03:49:15.998Z,7.17
2019-02-14T03:51:42.721Z,7.13
2019-02-14T03:54:09.659Z,7.09
2019-02-14T03:56:36.620Z,7.30
2019-02-14T03:59:03.288Z,7.27
2019-02-14T04:01:29.985Z,7.11
2019-02-14T04:03:56.819Z,7.05
2019-02-14T04:06:27.455Z,6.95
2019-02-14T04:08:52.175Z,6.98
2019-02-14T04:11:19.001Z,7.10
2019-02-14T04:13:46.367Z,7.01
2019-02-14T04:16:13.065Z,7.10
2019-02-14T04:18:39.809Z,7.21
2019-02-14T04:21:06.426Z,7.24
2019-02-14T04:23:33.239Z,7.31
2019-02-14T04:26:00.247Z,7.30
2019-02-14T04:28:27.699Z,7.26
2019-02-14T04:30:54.332Z,7.21
2019-02-14T04:33:21.206Z,7.22
2019-02-14T04:35:47.844Z,7.21
2019-02-14T04:38:14.497Z,7.15
2019-02-14T04:40:41.279Z,7.16
2019-02-14T04:45:53.779Z,7.22
2019-02-14T04:48:23.966Z,7.16
2019-02-14T04:50:50.816Z,7.20
2019-02-14T04:53:18.207Z,7.05
2019-02-14T04:55:46.079Z,6.81
2019-02-14T04:58:13.871Z,6.70
2019-02-14T05:00:40.601Z,6.52
2019-02-14T05:03:07.269Z,6.71
2019-02-14T05:05:34.060Z,6.75
2019-02-14T05:08:00.716Z,6.63
2019-02-14T05:10:27.577Z,6.43
2019-02-14T05:12:54.205Z,6.52
2019-02-14T05:15:20.824Z,6.63
2019-02-14T05:17:47.793Z,6.80
2019-02-14T05:20:14.368Z,6.92
2019-02-14T05:22:41.025Z,6.98
2019-02-14T05:25:07.939Z,7.00
2019-02-14T05:27:34.850Z,7.11
2019-02-14T05:30:01.504Z,7.20
2019-02-14T05:32:28.172Z,7.17
2019-02-14T05:34:55.083Z,7.20
2019-02-14T05:37:22.029Z,7.28
2019-02-14T05:39:49.326Z,7.17
2019-02-14T05:42:17.461Z,7.19
2019-02-14T05:44:44.298Z,7.07
2019-02-14T05:47:11.176Z,6.95
2019-02-14T05:49:38.123Z,7.03
2019-02-14T05:52:04.825Z,6.98
2019-02-14T05:54:31.497Z,7.04
2019-02-14T05:56:58.263Z,7.03
2019-02-14T05:59:25.324Z,7.14
2019-02-14T06:01:52.008Z,7.04
2019-02-14T06:04:18.710Z,6.90
2019-02-14T06:06:45.773Z,6.92
2019-02-14T06:09:12.410Z,6.84
2019-02-14T06:11:39.153Z,6.90
2019-02-14T06:14:05.729Z,6.81
2019-02-14T06:16:32.485Z,6.92
2019-02-14T06:19:00.221Z,7.25
2019-02-14T06:21:27.059Z,7.35
2019-02-14T06:23:53.692Z,7.31
2019-02-14T06:26:20.753Z,7.26
2019-02-14T06:28:47.415Z,7.27
2019-02-14T06:31:14.115Z,7.21
2019-02-14T06:33:40.874Z,7.18
2019-02-14T06:36:07.465Z,7.14
2019-02-14T06:38:34.075Z,6.97
2019-02-14T06:41:01.083Z,6.96
2019-02-14T06:43:31.356Z,6.91
2019-02-14T06:46:05.888Z,6.94
2019-02-14T06:48:37.055Z,7.05
2019-02-14T06:51:04.232Z,7.26
2019-02-14T06:53:31.767Z,7.15
2019-02-14T06:56:02.876Z,7.15
2019-02-14T06:58:26.930Z,7.28
2019-02-14T07:00:53.639Z,7.39
2019-02-14T07:03:20.341Z,7.57
2019-02-14T07:05:46.969Z,7.95
2019-02-14T07:08:13.562Z,7.97
2019-02-14T07:10:40.396Z,8.00
2019-02-14T07:13:07.086Z,8.07
2019-02-14T07:15:33.752Z,8.26
2019-02-14T07:18:00.903Z,8.24
2019-02-14T07:20:27.575Z,8.21
2019-02-14T07:22:54.514Z,8.32
2019-02-14T07:25:21.140Z,8.36
2019-02-14T07:27:47.774Z,8.51
2019-02-14T07:30:14.863Z,8.47
2019-02-14T07:32:41.707Z,8.70
2019-02-14T07:35:08.639Z,8.83
2019-02-14T07:37:35.590Z,8.92
2019-02-14T07:40:02.210Z,9.02
2019-02-14T07:42:28.858Z,9.16
2019-02-14T07:44:55.798Z,9.26
2019-02-14T07:47:22.779Z,9.29
2019-02-14T07:49:49.462Z,9.57
2019-02-14T07:52:16.496Z,9.57
2019-02-14T07:54:43.441Z,9.65
2019-02-14T07:59:42.057Z,9.93
2019-02-14T08:02:09.268Z,10.14
2019-02-14T08:04:36.103Z,10.13
2019-02-14T08:07:03.441Z,10.17
2019-02-14T08:09:31.627Z,10.16
2019-02-14T08:11:58.309Z,10.27
2019-02-14T08:14:25.384Z,10.46
2019-02-14T08:17:05.984Z,10.49
2019-02-14T08:19:32.720Z,10.61
2019-02-14T08:21:59.545Z,10.90
2019-02-14T08:24:26.393Z,10.80
2019-02-14T08:26:53.418Z,10.88
2019-02-14T08:29:20.396Z,11.12
2019-02-14T08:31:47.736Z,11.37
2019-02-14T08:34:14.521Z,11.18
2019-02-14T08:36:41.581Z,11.36
2019-02-14T08:39:08.708Z,11.57
2019-02-14T08:41:35.902Z,11.45
2019-02-14T08:44:03.002Z,11.78
2019-02-14T08:46:29.684Z,12.15
2019-02-14T08:48:56.828Z,12.31
2019-02-14T08:51:23.669Z,12.32
2019-02-14T08:53:50.658Z,12.50
2019-02-14T08:56:17.934Z,12.80
2019-02-14T08:58:44.849Z,12.81
2019-02-14T09:01:11.839Z,12.99
2019-02-14T09:03:38.804Z,13.17
2019-02-14T09:06:05.830Z,13.20
2019-02-14T09:08:32.866Z,13.24
2019-02-14T09:10:59.853Z,13.35
2019-02-14T09:13:26.519Z,13.57
2019-02-14T09:15:53.166Z,13.68
2019-02-14T09:18:20.131Z,14.02
2019-02-14T09:20:47.154Z,14.08
2019-02-14T09:23:14.773Z,14.12
2019-02-14T09:25:41.822Z,14.19
2019-02-14T09:28:08.461Z,14.29
2019-02-14T09:30:35.442Z,14.49
2019-02-14T09:33:02.691Z,14.58
2019-02-14T09:35:29.375Z,14.69
2019-02-14T09:38:03.098Z,14.90
2019-02-14T09:40:24.705Z,14.89
2019-02-14T09:42:51.598Z,14.85
2019-02-14T09:45:18.448Z,15.19
2019-02-14T09:47:45.136Z,15.21
2019-02-14T09:50:11.817Z,15.10
2019-02-14T09:52:38.753Z,15.29
2019-02-14T09:55:05.609Z,15.44
2019-02-14T09:57:32.880Z,15.57
2019-02-14T09:59:59.707Z,15.66
2019-02-14T10:04:59.087Z,15.65
2019-02-14T10:07:25.834Z,15.70
2019-02-14T10:09:52.889Z,15.92
2019-02-14T10:12:19.910Z,16.10
2019-02-14T10:14:46.899Z,16.35
2019-02-14T10:17:21.841Z,16.34
2019-02-14T10:19:41.987Z,16.48
2019-02-14T10:22:08.667Z,16.51
2019-02-14T10:24:35.361Z,16.51
2019-02-14T10:27:03.452Z,16.46
2019-02-14T10:29:30.273Z,16.57
2019-02-14T10:31:57.182Z,16.64
2019-02-14T10:34:24.069Z,16.94
2019-02-14T10:36:50.762Z,17.08
2019-02-14T10:39:17.426Z,17.05
2019-02-14T10:41:44.427Z,17.10
2019-02-14T10:44:11.436Z,17.10
2019-02-14T10:46:38.352Z,17.06
2019-02-14T10:49:05.199Z,17.55
2019-02-14T10:51:33.550Z,17.68
2019-02-14T10:54:00.400Z,17.91
2019-02-14T10:56:27.388Z,18.16
2019-02-14T10:58:54.313Z,18.06
2019-02-14T11:01:21.507Z,18.21
2019-02-14T11:03:48.468Z,18.39
2019-02-14T11:06:15.683Z,18.23
2019-02-14T11:08:42.586Z,18.18
2019-02-14T11:11:09.740Z,18.11
2019-02-14T11:13:36.540Z,18.59
2019-02-14T11:16:03.907Z,18.49
2019-02-14T11:18:30.786Z,18.32
2019-02-14T11:20:57.623Z,18.14
2019-02-14T11:23:24.293Z,18.31
2019-02-14T11:25:50.903Z,18.09
2019-02-14T11:28:17.747Z,18.00
2019-02-14T11:30:44.407Z,17.78
2019-02-14T11:33:11.366Z,17.94
2019-02-14T11:35:38.112Z,17.72
2019-02-14T11:38:05.354Z,17.75
2019-02-14T11:40:31.967Z,18.10
2019-02-14T11:42:58.791Z,18.14
2019-02-14T11:45:25.479Z,18.28
2019-02-14T11:47:52.287Z,18.31
2019-02-14T11:50:19.063Z,18.49
2019-02-14T11:52:45.695Z,18.71
2019-02-14T11:55:12.289Z,18.70
2019-02-14T11:57:39.247Z,18.94
2019-02-14T12:00:06.464Z,19.06
2019-02-14T12:02:34.551Z,18.94
2019-02-14T12:05:01.288Z,18.98
2019-02-14T12:07:27.920Z,18.70
2019-02-14T12:09:54.609Z,18.46
2019-02-14T12:12:22.965Z,18.35
2019-02-14T12:14:50.014Z,18.30
2019-02-14T12:17:16.800Z,18.74
2019-02-14T12:19:43.705Z,19.29
2019-02-14T12:22:11.305Z,19.56
2019-02-14T12:24:38.232Z,19.26
2019-02-14T12:27:05.013Z,19.64
2019-02-14T12:29:31.739Z,19.75
2019-02-14T12:31:58.716Z,19.75
2019-02-14T12:34:25.645Z,19.59
2019-02-14T12:36:52.260Z,19.21
2019-02-14T12:39:19.029Z,19.49
2019-02-14T12:41:45.917Z,19.84
2019-02-14T12:44:12.618Z,19.93
2019-02-14T12:46:39.270Z,19.63
2019-02-14T12:49:06.056Z,20.03
2019-02-14T12:51:32.699Z,20.12
2019-02-14T12:53:59.319Z,20.15
2019-02-14T12:56:26.282Z,20.08
2019-02-14T12:58:53.539Z,19.96
2019-02-14T13:01:21.910Z,20.05
2019-02-14T13:03:48.994Z,19.69
2019-02-14T13:06:15.661Z,19.48
2019-02-14T13:08:42.305Z,19.60
2019-02-14T13:11:09.481Z,19.53
2019-02-14T13:13:36.653Z,19.87
2019-02-14T13:16:03.483Z,19.96
2019-02-14T13:18:30.453Z,20.01
2019-02-14T13:20:57.107Z,20.05
2019-02-14T13:23:23.804Z,20.18
2019-02-14T13:25:50.757Z,20.73
2019-02-14T13:28:17.781Z,20.94
2019-02-14T13:30:44.715Z,20.69
2019-02-14T13:33:11.585Z,20.77
2019-02-14T13:35:38.282Z,20.74
2019-02-14T13:38:06.052Z,20.75
2019-02-14T13:40:32.687Z,20.84
2019-02-14T13:42:59.747Z,20.48
2019-02-14T13:45:26.775Z,20.36
2019-02-14T13:47:54.062Z,20.33
2019-02-14T13:50:21.240Z,20.44
2019-02-14T13:52:48.077Z,20.42
2019-02-14T13:55:15.087Z,20.55
2019-02-14T13:57:42.163Z,20.55
2019-02-14T14:00:09.509Z,20.50
2019-02-14T14:02:36.326Z,20.37
2019-02-14T14:05:03.100Z,20.68
2019-02-14T14:07:39.925Z,20.69
2019-02-14T14:09:58.600Z,20.76
2019-02-14T14:12:25.560Z,20.78
2019-02-14T14:14:52.303Z,21.00
2019-02-14T14:17:19.271Z,21.12
2019-02-14T14:19:46.630Z,21.03
2019-02-14T14:22:13.595Z,20.79
2019-02-14T14:24:40.480Z,20.76
2019-02-14T14:27:07.665Z,20.79
2019-02-14T14:29:34.255Z,20.73
2019-02-14T14:32:01.136Z,20.61
2019-02-14T14:34:28.357Z,20.52
2019-02-14T14:36:55.050Z,20.71
2019-02-14T14:39:21.962Z,20.65
2019-02-14T14:41:48.854Z,20.52
2019-02-14T14:44:15.969Z,20.29
2019-02-14T14:46:42.695Z,20.11
2019-02-14T14:49:11.799Z,20.11
2019-02-14T14:51:38.783Z,20.17
2019-02-14T14:54:06.886Z,20.03
2019-02-14T14:56:33.857Z,19.78
2019-02-14T14:59:00.655Z,19.59
2019-02-14T15:01:27.436Z,19.33
2019-02-14T15:03:54.785Z,19.34
2019-02-14T15:06:22.012Z,19.22
2019-02-14T15:08:48.791Z,19.31
2019-02-14T15:11:15.847Z,19.32
2019-02-14T15:13:43.591Z,19.29
2019-02-14T15:16:10.784Z,19.19
2019-02-14T15:18:37.510Z,19.15
2019-02-14T15:21:04.545Z,18.88
2019-02-14T15:23:32.195Z,18.92
2019-02-14T15:25:58.909Z,18.89
2019-02-14T15:28:26.478Z,18.94
2019-02-14T15:30:53.291Z,18.88
2019-02-14T15:33:21.483Z,18.69
2019-02-14T15:35:48.142Z,18.56
2019-02-14T15:38:15.027Z,18.23
2019-02-14T15:40:42.766Z,18.06
2019-02-14T15:43:09.690Z,18.10
2019-02-14T15:45:37.619Z,18.17
2019-02-14T15:48:04.402Z,18.03
2019-02-14T15:50:32.162Z,17.93
2019-02-14T15:52:59.301Z,17.77
2019-02-14T15:55:26.301Z,17.59
2019-02-14T15:57:53.601Z,17.43
2019-02-14T16:00:20.971Z,17.26
2019-02-14T16:02:50.130Z,17.09
2019-02-14T16:05:17.333Z,17.03
2019-02-14T16:07:45.583Z,16.88
2019-02-14T16:10:18.698Z,16.77
2019-02-14T16:12:43.269Z,16.82
2019-02-14T16:15:09.547Z,16.55
2019-02-14T16:17:37.950Z,16.41
2019-02-14T16:20:04.938Z,16.12
2019-02-14T16:22:31.769Z,15.91
2019-02-14T16:24:59.632Z,15.80
2019-02-14T16:27:26.853Z,15.80
2019-02-14T16:32:40.069Z,15.43
2019-02-14T16:35:08.419Z,15.14
2019-02-14T16:37:35.026Z,15.12
2019-02-14T16:40:02.141Z,15.01
2019-02-14T16:42:29.221Z,14.98
2019-02-14T16:44:58.753Z,14.79
2019-02-14T16:47:29.601Z,14.78
2019-02-14T16:49:58.440Z,14.62
2019-02-14T16:52:28.898Z,14.30
2019-02-14T16:54:55.938Z,14.12
2019-02-14T16:57:23.762Z,13.93
2019-02-14T16:59:52.323Z,13.88
2019-02-14T17:02:19.327Z,13.98
2019-02-14T17:04:46.448Z,13.92
2019-02-14T17:07:13.267Z,13.87
2019-02-14T17:09:39.893Z,13.88
2019-02-14T17:12:06.508Z,13.68
2019-02-14T17:14:33.330Z,13.68
2019-02-14T17:16:59.968Z,13.57
2019-02-14T17:19:26.737Z,13.31
2019-02-14T17:21:53.594Z,13.09
2019-02-14T17:24:20.497Z,12.94
2019-02-14T17:26:47.468Z,12.90
2019-02-14T17:29:15.197Z,13.00
2019-02-14T17:31:42.106Z,13.01
2019-02-14T17:34:09.030Z,12.95
2019-02-14T17:36:35.691Z,12.93
2019-02-14T17:39:02.343Z,12.80
2019-02-14T17:41:28.928Z,12.70
2019-02-14T17:43:57.729Z,12.49
2019-02-14T17:46:26.447Z,12.33
2019-02-14T17:48:57.556Z,12.24
2019-02-14T17:51:26.182Z,12.15
2019-02-14T17:53:53.097Z,12.16
2019-02-14T17:56:20.340Z,11.89
2019-02-14T17:58:49.275Z,11.71
2019-02-14T18:01:15.974Z,11.80
2019-02-14T18:03:43.184Z,11.88
2019-02-14T18:06:10.070Z,11.78
2019-02-14T18:08:37.054Z,11.79
2019-02-14T18:11:06.576Z,11.72
2019-02-14T18:13:33.166Z,11.52
2019-02-14T18:16:00.702Z,11.48
2019-02-14T18:18:29.754Z,11.37
2019-02-14T18:20:58.595Z,11.33
2019-02-14T18:23:25.732Z,11.09
2019-02-14T18:25:52.318Z,11.15
2019-02-14T18:28:21.277Z,11.06
2019-02-14T18:30:50.946Z,10.98
2019-02-14T18:33:21.278Z,10.69
2019-02-14T18:35:49.933Z,10.59
2019-02-14T18:38:16.580Z,10.51
2019-02-14T18:40:43.777Z,10.50
2019-02-14T18:45:58.441Z,10.55
2019-02-14T18:48:25.606Z,10.40
2019-02-14T18:50:55.846Z,10.36
2019-02-14T18:53:23.913Z,10.05
2019-02-14T18:55:53.206Z,9.88
2019-02-14T18:58:26.339Z,9.92
2019-02-14T19:00:50.587Z,9.93
2019-02-14T19:03:19.506Z,9.97
2019-02-14T19:05:46.910Z,9.90
2019-02-14T19:08:16.601Z,10.00
2019-02-14T19:10:45.640Z,10.10
2019-02-14T19:13:12.248Z,10.04
2019-02-14T19:15:44.526Z,9.90
2019-02-14T19:18:11.086Z,9.91
2019-02-14T19:20:41.488Z,9.96
2019-02-14T19:23:08.415Z,9.72
2019-02-14T19:25:35.123Z,9.71
2019-02-14T19:28:03.218Z,9.61
2019-02-14T19:30:32.895Z,9.63
2019-02-14T19:33:00.493Z,9.55
2019-02-14T19:35:31.374Z,9.48
2019-02-14T19:38:01.282Z,9.55
2019-02-14T19:43:19.220Z,9.09
2019-02-14T19:45:50.412Z,8.96
2019-02-14T19:48:18.280Z,9.11
2019-02-14T19:50:48.951Z,9.11
2019-02-14T19:53:18.269Z,9.05
2019-02-14T19:55:48.117Z,8.99
2019-02-14T19:58:17.476Z,9.00
2019-02-14T20:00:44.923Z,8.83
2019-02-14T20:03:11.663Z,8.80
2019-02-14T20:05:38.426Z,8.67
2019-02-14T20:08:05.686Z,8.56
2019-02-14T20:10:34.532Z,8.52
2019-02-14T20:13:01.155Z,8.57
2019-02-14T20:15:37.033Z,8.62
2019-02-14T20:18:01.643Z,8.73
2019-02-14T20:20:30.280Z,8.78
2019-02-14T20:22:59.871Z,8.75
2019-02-14T20:25:27.970Z,8.73
2019-02-14T20:27:56.073Z,8.63
2019-02-14T20:30:30.533Z,8.63
2019-02-14T20:33:04.442Z,8.56
2019-02-14T20:35:24.801Z,8.45
2019-02-14T20:37:52.779Z,8.47
2019-02-14T20:40:23.754Z,8.49
2019-02-14T20:42:51.677Z,8.49
2019-02-14T20:45:18.360Z,8.49
2019-02-14T20:47:46.913Z,8.58
2019-02-14T20:50:14.836Z,8.45
2019-02-14T20:52:44.254Z,8.43
2019-02-14T20:55:12.839Z,8.71
2019-02-14T20:57:43.964Z,8.59
2019-02-14T21:00:10.659Z,8.50
2019-02-14T21:02:37.811Z,8.36
2019-02-14T21:05:06.256Z,8.18
2019-02-14T21:07:36.863Z,7.91
2019-02-14T21:10:04.888Z,7.81
2019-02-14T21:12:33.066Z,7.76
2019-02-14T21:15:00.444Z,7.74
2019-02-14T21:17:31.950Z,7.80
2019-02-14T21:20:10.851Z,7.77
2019-02-14T21:22:39.445Z,7.68
2019-02-14T21:25:12.906Z,7.54
2019-02-14T21:27:39.249Z,7.58
2019-02-14T21:30:09.859Z,7.61
2019-02-14T21:32:40.708Z,7.58
2019-02-14T21:35:10.470Z,7.39
2019-02-14T21:37:39.947Z,7.35
2019-02-14T21:40:11.800Z,7.43
2019-02-14T21:42:41.538Z,7.59
2019-02-14T21:45:08.773Z,7.42
2019-02-14T21:47:38.554Z,7.20
2019-02-14T21:50:11.030Z,7.06
2019-02-14T21:52:40.933Z,7.12
2019-02-14T21:55:26.145Z,7.10
2019-02-14T21:57:42.551Z,7.14
2019-02-14T22:00:11.989Z,7.11
2019-02-14T22:02:38.614Z,7.18
2019-02-14T22:05:05.270Z,7.24
2019-02-14T22:07:34.890Z,7.29
2019-02-14T22:10:00.636Z,7.30
2019-02-14T22:12:39.927Z,7.21
2019-02-14T22:14:55.763Z,7.18
2019-02-14T22:17:22.862Z,7.02
2019-02-14T22:19:49.806Z,7.02
2019-02-14T22:22:16.480Z,7.14
2019-02-14T22:24:43.369Z,7.11
2019-02-14T22:27:09.963Z,7.24
2019-02-14T22:29:36.610Z,7.30
2019-02-14T22:32:03.564Z,7.28
2019-02-14T22:34:30.216Z,7.35
2019-02-14T22:36:57.385Z,7.30
2019-02-14T22:39:26.372Z,7.24
2019-02-14T22:41:53.096Z,7.14
2019-02-14T22:44:20.155Z,7.11
2019-02-14T22:46:46.902Z,6.81
2019-02-14T22:49:13.764Z,6.88
2019-02-14T22:51:40.731Z,6.83
2019-02-14T22:54:07.888Z,6.84
2019-02-14T22:56:34.858Z,6.76
2019-02-14T22:59:02.382Z,6.82
2019-02-14T23:01:29.017Z,6.85
2019-02-14T23:03:56.151Z,6.85
2019-02-14T23:06:22.943Z,6.97
2019-02-14T23:08:50.290Z,6.98
2019-02-14T23:11:16.934Z,6.97
2019-02-14T23:13:44.375Z,7.03
2019-02-14T23:16:11.047Z,6.98
2019-02-14T23:18:38.265Z,6.91
2019-02-14T23:21:05.949Z,6.99
2019-02-14T23:23:32.567Z,6.75
2019-02-14T23:25:59.341Z,6.55
2019-02-14T23:28:26.291Z,6.55
2019-02-14T23:30:53.187Z,6.64
2019-02-14T23:33:20.629Z,6.65
2019-02-14T23:35:47.280Z,6.71
2019-02-14T23:38:14.229Z,6.57
2019-02-14T23:40:41.227Z,6.65
2019-02-14T23:43:08.635Z,6.67
2019-02-14T23:45:35.500Z,6.70
2019-02-14T23:48:02.720Z,6.58
2019-02-14T23:50:29.663Z,6.57
2019-02-14T23:52:56.368Z,6.60
2019-02-14T23:55:23.054Z,6.55
2019-02-14T23:57:50.833Z,6.63
